Flight Track Log - Related Links

Times and Time Zones

All times are in EST time to prevent confusion due to time zone crossing. See the EJA848 flight status page for this flight to view local times or setup timezone preferences in your user account.

Time Position Orientation Groundspeed Altitude Reporting Facility
EST Latitude Longitude Course Direction KTS MPH feet Rate Location/Type
Mon 12:12:00 PM 33.6167 -111.9833 264° West 204 235 4,500  Level Phoenix TRACON
Mon 12:12:55 PM 33.6667 -111.9833 360° North 233 268 7,200 2,833 Climbing Phoenix TRACON
Mon 12:14:24 PM 33.7586 -111.8978 38° Northeast 292 336 11,300 2,702 Climbing Albuquerque Center
Mon 12:15:26 PM 33.7886 -111.8069 68° East 324 373 14,000 1,887 Climbing Albuquerque Center
Mon 12:16:28 PM 33.7756 -111.6933 98° East 348 400 15,200 1,645 Climbing Albuquerque Center
Mon 12:17:30 PM 33.7492 -111.5681 104° East 386 444 17,400 2,468 Climbing Albuquerque Center
Mon 12:18:32 PM 33.7178 -111.4133 104° East 399 459 20,300 2,516 Climbing Albuquerque Center
Mon 12:19:34 PM 33.7003 -111.2808 99° East 406 467 22,600 2,112 Climbing Albuquerque Center
Mon 12:20:37 PM 33.7308 -111.1469 75° East 418 481 24,700 1,872 Climbing Albuquerque Center
Mon 12:21:39 PM 33.7783 -111.0158 66° East 428 493 26,500 1,500 Climbing Albuquerque Center
Mon 12:22:41 PM 33.8269 -110.8772 67° East 442 509 27,800 1,355 Climbing Albuquerque Center
Mon 12:23:43 PM 33.8878 -110.7061 67° East 460 529 29,300 1,355 Climbing Albuquerque Center
Mon 12:24:45 PM 33.9394 -110.5586 67° East 472 543 30,600 1,258 Climbing Albuquerque Center
Mon 12:25:47 PM 33.9914 -110.4122 67° East 476 548 31,900 1,258 Climbing Albuquerque Center
Mon 12:26:49 PM 34.0478 -110.2461 68° East 478 550 33,200 1,113 Climbing Albuquerque Center
Mon 12:27:51 PM 34.1003 -110.0967 67° East 481 554 34,200 871 Climbing Albuquerque Center
Mon 12:28:53 PM 34.1522 -109.9469 67° East 485 558 35,000 774 Climbing Albuquerque Center
Mon 12:29:55 PM 34.2122 -109.7731 67° East 497 572 35,800 672 Climbing Albuquerque Center
Mon 12:30:58 PM 34.2631 -109.6217 68° East 504 580 36,400 581 Climbing Albuquerque Center
Mon 12:31:59 PM 34.3231 -109.4422 68° East 512 589 37,000 585 Climbing Albuquerque Center
Mon 12:33:01 PM 34.3756 -109.2906 67° East 513 590 37,600 484 Climbing Albuquerque Center
Mon 12:34:03 PM 34.4353 -109.1081 68° East 518 596 38,000 387 Climbing Albuquerque Center
Mon 12:35:05 PM 34.4786 -108.9472 72° East 521 600 38,400 435 Climbing Albuquerque Center
Mon 12:36:07 PM 34.5308 -108.7592 71° East 526 605 38,900 435 Climbing Albuquerque Center
Mon 12:37:09 PM 34.5744 -108.5961 72° East 529 609 39,300 387 Climbing Albuquerque Center
Mon 12:38:11 PM 34.6186 -108.4358 71° East 527 606 39,700 387 Climbing Albuquerque Center
Mon 12:39:13 PM 34.6708 -108.2458 71° East 530 610 40,100 387 Climbing Albuquerque Center
Mon 12:40:15 PM 34.7178 -108.0700 72° East 529 609 40,500 387 Climbing Albuquerque Center
Mon 12:41:17 PM 34.7639 -107.8986 72° East 531 611 40,900 242 Climbing Albuquerque Center
Mon 12:42:19 PM 34.8081 -107.7286 72° East 530 610 41,000 48 Climbing Albuquerque Center
Mon 12:43:22 PM 34.8539 -107.5553 72° East 534 615 41,000  Level Albuquerque Center
Mon 12:44:24 PM 34.9075 -107.3469 73° East 543 625 41,000  Level Albuquerque Center
Mon 12:45:26 PM 34.9531 -107.1728 72° East 541 623 41,000  Level Albuquerque Center
Mon 12:46:28 PM 34.9969 -107.0000 73° East 536 617 41,000  Level Albuquerque Center
Mon 12:47:30 PM 35.0414 -106.8306 72° East 534 615 41,000  Level Albuquerque Center
Mon 12:48:32 PM 35.1014 -106.6647 66° East 536 617 41,000  Level Albuquerque Center
Mon 12:49:34 PM 35.1633 -106.4969 66° East 544 626 41,000  Level Albuquerque Center
Mon 12:50:36 PM 35.2364 -106.2967 66° East 543 625 41,000  Level Albuquerque Center
Mon 12:51:38 PM 35.2964 -106.1344 66° East 532 612 41,000  Level Albuquerque Center
Mon 12:52:40 PM 35.3569 -105.9686 66° East 536 617 41,000  Level Albuquerque Center
Mon 12:53:42 PM 35.4256 -105.7811 66° East 538 619 41,000  Level Albuquerque Center
Mon 12:54:44 PM 35.4900 -105.6017 66° East 544 626 41,000  Level Albuquerque Center
Mon 12:55:46 PM 35.5508 -105.4383 65° Northeast 543 625 41,000  Level Albuquerque Center
Mon 12:56:48 PM 35.6117 -105.2667 66° East 543 625 41,000  Level Albuquerque Center
Mon 12:57:50 PM 35.6786 -105.0986 64° Northeast 539 620 41,000  Level Albuquerque Center
Mon 12:58:52 PM 35.7642 -104.9403 56° Northeast 545 627 41,000  Level Albuquerque Center
Mon 12:59:54 PM 35.8497 -104.7822 56° Northeast 546 628 41,000  Level Albuquerque Center
Mon 01:00:56 PM 35.9486 -104.6017 56° Northeast 540 621 41,000  Level Albuquerque Center
Mon 01:01:59 PM 36.0336 -104.4436 56° Northeast 543 625 41,000  Level Albuquerque Center
Mon 01:03:01 PM 36.1181 -104.2850 57° Northeast 544 626 41,000  Level Albuquerque Center
Mon 01:04:03 PM 36.2028 -104.1269 56° Northeast 544 626 41,000  Level Albuquerque Center
Mon 01:05:05 PM 36.2878 -103.9694 56° Northeast 544 626 41,000  Level Albuquerque Center
Mon 01:06:07 PM 36.3722 -103.8078 57° Northeast 548 631 41,000  Level Albuquerque Center
Mon 01:07:09 PM 36.4567 -103.6478 57° Northeast 549 632 41,000  Level Albuquerque Center
Mon 01:08:12 PM 36.5397 -103.4856 57° Northeast 550 633 41,000  Level Albuquerque Center
Mon 01:09:14 PM 36.6381 -103.2975 57° Northeast 550 633 41,000  Level Albuquerque Center
Mon 01:10:16 PM 36.7164 -103.1450 57° Northeast 553 636 41,000  Level Albuquerque Center
Mon 01:11:18 PM 36.8089 -102.9667 57° Northeast 551 634 41,000  Level Albuquerque Center
Mon 01:12:20 PM 36.8872 -102.8111 58° Northeast 553 636 41,000  Level Albuquerque Center
Mon 01:13:23 PM 36.9797 -102.6308 57° Northeast 553 636 41,000  Level Albuquerque Center
Mon 01:14:24 PM 37.0564 -102.4800 57° Northeast 551 634 41,000  Level Albuquerque Center
Mon 01:15:20 PM 37.1333 -102.3247 58° Northeast 549 632 41,000  Level Kansas City Center
Mon 01:16:22 PM 37.2247 -102.1436 58° Northeast 550 633 41,000  Level Kansas City Center
Mon 01:17:24 PM 37.3028 -101.9872 58° Northeast 551 634 41,000  Level Kansas City Center
Mon 01:18:26 PM 37.3800 -101.8294 58° Northeast 553 636 41,000  Level Kansas City Center
Mon 01:19:29 PM 37.4714 -101.6456 58° Northeast 554 638 41,000  Level Kansas City Center
Mon 01:20:31 PM 37.5494 -101.4883 58° Northeast 553 636 41,000  Level Kansas City Center
Mon 01:21:33 PM 37.6397 -101.3019 59° Northeast 555 639 41,000  Level Kansas City Center
Mon 01:22:35 PM 37.7144 -101.1489 58° Northeast 555 639 41,000  Level Kansas City Center
Mon 01:23:37 PM 37.8106 -100.9531 58° Northeast 556 640 41,000  Level Kansas City Center
Mon 01:24:39 PM 37.9036 -100.8022 52° Northeast 564 649 41,000  Level Kansas City Center
Mon 01:25:41 PM 38.0028 -100.6658 47° Northeast 551 634 41,000  Level Kansas City Center
Mon 01:26:43 PM 38.1183 -100.5047 48° Northeast 549 632 41,000  Level Kansas City Center
Mon 01:27:45 PM 38.2167 -100.3664 48° Northeast 550 633 41,000  Level Kansas City Center
Mon 01:28:47 PM 38.3325 -100.2072 47° Northeast 549 632 41,000  Level Kansas City Center
Mon 01:29:49 PM 38.4314 -100.0703 47° Northeast 549 632 41,000  Level Kansas City Center
Mon 01:30:51 PM 38.5469 -99.9117 47° Northeast 546 628 41,000  Level Kansas City Center
Mon 01:31:53 PM 38.6425 -99.7706 49° Northeast 548 631 41,000  Level Kansas City Center
Mon 01:32:55 PM 38.6919 -99.5597 73° East 548 631 41,000  Level Kansas City Center
Mon 01:33:57 PM 38.7294 -99.3822 75° East 547 629 41,000  Level Kansas City Center
Mon 01:34:59 PM 38.7736 -99.1953 73° East 548 631 41,000  Level Kansas City Center
Mon 01:36:01 PM 38.8194 -99.0056 73° East 552 635 41,000  Level Kansas City Center
Mon 01:37:03 PM 38.8642 -98.8167 73° East 551 634 41,000  Level Kansas City Center
Mon 01:38:05 PM 38.9164 -98.5903 73° East 550 633 41,000  Level Kansas City Center
Mon 01:39:07 PM 38.9611 -98.4011 73° East 552 635 41,000  Level Kansas City Center
Mon 01:40:09 PM 39.0047 -98.2122 73° East 551 634 41,000  Level Kansas City Center
Mon 01:41:11 PM 39.0472 -98.0228 74° East 551 634 41,000  Level Kansas City Center
Mon 01:42:14 PM 39.0928 -97.8261 73° East 553 636 41,000  Level Kansas City Center
Mon 01:43:16 PM 39.1403 -97.6142 74° East 553 636 41,000  Level Kansas City Center
Mon 01:44:18 PM 39.1811 -97.4322 74° East 552 635 41,000  Level Kansas City Center
Mon 01:45:20 PM 39.2278 -97.2194 74° East 552 635 41,000  Level Kansas City Center
Mon 01:46:22 PM 39.2669 -97.0383 74° East 549 632 41,000  Level Kansas City Center
Mon 01:47:24 PM 39.3067 -96.8547 74° East 552 635 41,000  Level Kansas City Center
Mon 01:48:26 PM 39.3536 -96.6417 74° East 552 635 41,000  Level Kansas City Center
Mon 01:49:28 PM 39.3919 -96.4561 75° East 555 639 41,000  Level Kansas City Center
Mon 01:50:30 PM 39.4328 -96.2639 75° East 555 639 41,000  Level Kansas City Center
Mon 01:51:32 PM 39.4747 -96.0558 75° East 556 640 41,000  Level Kansas City Center
Mon 01:52:34 PM 39.5194 -95.8403 75° East 554 638 41,000  Level Kansas City Center
Mon 01:53:36 PM 39.5578 -95.6544 75° East 554 638 41,000  Level Kansas City Center
Mon 01:54:38 PM 39.6019 -95.4364 75° East 556 640 41,000  Level Kansas City Center
Mon 01:55:40 PM 39.6389 -95.2503 75° East 553 636 41,000  Level Kansas City Center
Mon 01:56:42 PM 39.6764 -95.0631 75° East 554 638 41,000  Level Kansas City Center
Mon 01:57:44 PM 39.7183 -94.8456 76° East 554 638 41,000  Level Kansas City Center
Mon 01:58:46 PM 39.7556 -94.6592 75° East 554 638 41,000  Level Kansas City Center
Mon 01:59:48 PM 39.7964 -94.4411 76° East 554 638 41,000  Level Kansas City Center
Mon 02:00:50 PM 39.8331 -94.2553 76° East 554 638 41,000  Level Kansas City Center
Mon 02:01:53 PM 39.8708 -94.0431 77° East 555 639 41,000  Level Kansas City Center
Mon 02:02:55 PM 39.9064 -93.8497 76° East 553 636 41,000  Level Kansas City Center
Mon 02:03:57 PM 39.9439 -93.6589 76° East 550 633 41,000  Level Kansas City Center
Mon 02:04:59 PM 39.9783 -93.4653 77° East 552 635 41,000  Level Kansas City Center
Mon 02:06:01 PM 40.0203 -93.2347 77° East 551 634 41,000  Level Kansas City Center
Mon 02:07:03 PM 40.0553 -93.0419 77° East 552 635 41,000  Level Kansas City Center
Mon 02:08:05 PM 40.0869 -92.8575 77° East 552 635 41,000  Level Kansas City Center
Mon 02:09:07 PM 40.1250 -92.6386 77° East 552 635 41,000  Level Kansas City Center
Mon 02:10:09 PM 40.1806 -92.4611 68° East 555 639 41,000  Level Kansas City Center
Mon 02:11:11 PM 40.2522 -92.2642 64° Northeast 554 638 41,000  Level Kansas City Center
Mon 02:12:13 PM 40.3169 -92.0842 65° Northeast 554 638 41,000  Level Kansas City Center
Mon 02:13:15 PM 40.3811 -91.9044 65° Northeast 553 636 41,000  Level Kansas City Center
Mon 02:13:55 PM 40.4322 -91.7617 65° Northeast 552 635 41,000  Level Chicago Center
Mon 02:14:56 PM 40.4944 -91.5794 66° East 553 636 41,000  Level Chicago Center
Mon 02:15:58 PM 40.5536 -91.3953 67° East 552 635 41,000  Level Chicago Center
Mon 02:17:00 PM 40.6169 -91.2142 65° Northeast 551 634 41,000  Level Chicago Center
Mon 02:18:02 PM 40.6819 -91.0331 65° Northeast 551 634 41,000  Level Chicago Center
Mon 02:19:04 PM 40.7558 -90.8131 66° East 552 635 41,000  Level Chicago Center
Mon 02:20:06 PM 40.8169 -90.6308 66° East 549 632 41,000  Level Chicago Center
Mon 02:21:08 PM 40.8786 -90.4472 66° East 550 633 41,000  Level Chicago Center
Mon 02:22:10 PM 40.9433 -90.2472 67° East 548 631 41,000  Level Chicago Center
Mon 02:23:12 PM 41.0061 -90.0628 66° East 549 632 41,000  Level Chicago Center
Mon 02:24:14 PM 41.0656 -89.8786 67° East 546 628 41,000  Level Chicago Center
Mon 02:25:16 PM 41.1250 -89.6933 67° East 547 629 41,000  Level Chicago Center
Mon 02:26:18 PM 41.1836 -89.5097 67° East 544 626 41,000  Level Chicago Center
Mon 02:27:19 PM 41.2525 -89.2856 68° East 548 631 41,000  Level Chicago Center
Mon 02:28:21 PM 41.3103 -89.0986 68° East 549 632 41,000  Level Chicago Center
Mon 02:29:23 PM 41.3678 -88.9114 68° East 548 631 41,000  Level Chicago Center
Mon 02:30:25 PM 41.4253 -88.7211 68° East 550 633 41,000  Level Chicago Center
Mon 02:31:27 PM 41.4828 -88.5308 68° East 552 635 41,000  Level Chicago Center
Mon 02:32:30 PM 41.5400 -88.3364 68° East 557 641 41,000  Level Chicago Center
Mon 02:33:32 PM 41.5689 -88.1317 79° East 551 634 41,000  Level Chicago Center
Mon 02:34:34 PM 41.5933 -87.9236 81° East 553 636 41,000  Level Chicago Center
Mon 02:35:36 PM 41.6211 -87.6753 81° East 559 643 41,000  Level Chicago Center
Mon 02:36:38 PM 41.6444 -87.4722 81° East 554 638 41,000  Level Chicago Center
Mon 02:37:40 PM 41.6686 -87.2703 81° East 553 636 41,000  Level Chicago Center
Mon 02:38:42 PM 41.6911 -87.0658 82° East 555 639 41,000  Level Chicago Center
Mon 02:39:44 PM 41.7122 -86.8625 82° East 555 639 41,000  Level Chicago Center
Mon 02:40:46 PM 41.7331 -86.6606 82° East 555 639 41,000  Level Chicago Center
Mon 02:41:48 PM 41.7586 -86.4144 82° East 557 641 41,000  Level Chicago Center
Mon 02:42:50 PM 41.7786 -86.2114 82° East 553 636 41,000  Level Chicago Center
Mon 02:43:52 PM 41.8003 -86.0072 82° East 553 636 41,000  Level Chicago Center
Mon 02:44:54 PM 41.8208 -85.8058 82° East 551 634 41,000  Level Chicago Center
Mon 02:45:56 PM 41.8431 -85.5958 82° East 554 638 41,000  Level Chicago Center
Mon 02:46:59 PM 41.8631 -85.3881 83° East 553 636 41,000  Level Chicago Center
Mon 02:48:01 PM 41.8831 -85.1817 83° East 550 633 41,000  Level Chicago Center
Mon 02:49:03 PM 41.9039 -84.9769 82° East 550 633 41,000  Level Chicago Center
Mon 02:50:05 PM 41.9286 -84.7303 82° East 556 640 41,000  Level Chicago Center
Mon 02:51:07 PM 41.9492 -84.5286 82° East 548 631 41,000  Level Chicago Center
Mon 02:52:09 PM 41.9689 -84.3181 83° East 547 629 41,000  Level Chicago Center
Mon 02:53:11 PM 41.9889 -84.1169 82° East 546 628 41,000  Level Chicago Center
Mon 02:54:13 PM 42.0069 -83.9158 83° East 546 628 41,000  Level Chicago Center
Mon 02:55:27 PM 42.0283 -83.6642 83° East 545 627 41,000  Level Cleveland Center
Mon 02:56:29 PM 42.0453 -83.4575 84° East 546 628 41,000  Level Cleveland Center
Mon 02:57:31 PM 42.0567 -83.2533 86° East 544 626 41,000  Level Cleveland Center
Mon 02:58:33 PM 42.0675 -83.0256 86° East 547 629 41,000  Level Cleveland Center
Mon 02:59:35 PM 42.0778 -82.8250 86° East 543 625 41,000  Level Cleveland Center
Mon 03:00:37 PM 42.0900 -82.6250 85° East 540 621 41,000  Level Cleveland Center
Mon 03:01:40 PM 42.1108 -82.4269 82° East 538 619 41,000  Level Cleveland Center
Mon 03:02:42 PM 42.1322 -82.1872 83° East 539 620 41,000  Level Cleveland Center
Mon 03:03:44 PM 42.1492 -81.9972 83° East 538 619 41,000  Level Cleveland Center
Mon 03:04:46 PM 42.1667 -81.7953 83° East 537 618 41,000  Level Cleveland Center
Mon 03:05:48 PM 42.1833 -81.5922 84° East 538 619 41,000  Level Cleveland Center
Mon 03:06:50 PM 42.1994 -81.3903 84° East 536 617 41,000  Level Cleveland Center
Mon 03:07:52 PM 42.2194 -81.1536 83° East 537 618 41,000  Level Cleveland Center
Mon 03:08:54 PM 42.2344 -80.9528 84° East 533 613 41,000  Level Cleveland Center
Mon 03:09:56 PM 42.2500 -80.7497 84° East 536 617 41,000  Level Cleveland Center
Mon 03:10:58 PM 42.2658 -80.5489 84° East 534 615 41,000  Level Cleveland Center
Mon 03:12:00 PM 42.2808 -80.3475 84° East 535 616 41,000  Level Cleveland Center
Mon 03:13:02 PM 42.2831 -80.1431 89° East 538 619 41,000  Level Cleveland Center
Mon 03:14:05 PM 42.2847 -79.9342 89° East 536 617 41,000  Level Cleveland Center
Mon 03:15:07 PM 42.2869 -79.7336 89° East 536 617 41,000  Level Cleveland Center
Mon 03:16:09 PM 42.2886 -79.5319 89° East 539 620 41,000  Level Cleveland Center
Mon 03:17:11 PM 42.2917 -79.2922 89° East 535 616 41,000  Level Cleveland Center
Mon 03:18:13 PM 42.2967 -79.0911 88° East 535 616 41,000  Level Cleveland Center
Mon 03:19:15 PM 42.3150 -78.8911 83° East 533 613 41,000  Level Cleveland Center
Mon 03:20:17 PM 42.3317 -78.6950 83° East 527 606 41,000  Level Cleveland Center
Mon 03:21:19 PM 42.3481 -78.4978 84° East 530 610 41,000  Level Cleveland Center
Mon 03:22:21 PM 42.3639 -78.3014 84° East 529 609 41,000  Level Cleveland Center
Mon 03:23:23 PM 42.3822 -78.0667 84° East 528 608 41,000  Level Cleveland Center
Mon 03:24:25 PM 42.3967 -77.8714 84° East 526 605 41,000 -288 Level Cleveland Center
Mon 03:25:28 PM 42.4117 -77.6792 84° East 527 606 40,400 -1,104 Descending Cleveland Center
Mon 03:26:30 PM 42.4297 -77.4456 84° East 538 619 38,700 -1,742 Descending Cleveland Center
Mon 03:27:32 PM 42.4436 -77.2414 85° East 542 624 36,800 -1,887 Descending Cleveland Center
Mon 03:28:34 PM 42.4572 -77.0375 85° East 546 628 34,800 -1,548 Descending Cleveland Center
Mon 03:29:36 PM 42.4711 -76.8383 85° East 540 621 33,600 -871 Descending Cleveland Center
Mon 03:30:38 PM 42.4844 -76.6411 85° East 532 612 33,000 -290 Descending Cleveland Center
Mon 03:31:40 PM 42.4911 -76.4417 87° East 531 611 33,000 -98 Level Cleveland Center
Mon 03:32:40 PM 42.4469 -76.2261 105° East 530 610 32,800 -976 Descending Boston Center
Mon 03:33:43 PM 42.4058 -76.0242 105° East 528 608 31,000 -1,707 Descending Boston Center
Mon 03:34:43 PM 42.3664 -75.8344 106° East 529 609 29,300 -1,686 Descending Boston Center
Mon 03:35:44 PM 42.3283 -75.6528 106° East 513 590 27,600 -1,820 Descending Boston Center
Mon 03:36:45 PM 42.2925 -75.4800 106° East 502 578 25,600 -2,213 Descending Boston Center
Mon 03:37:46 PM 42.2533 -75.3036 107° East 485 558 23,100 -2,419 Descending Boston Center
Mon 03:38:49 PM 42.2172 -75.1414 107° East 467 537 20,600 -2,323 Descending Boston Center
Mon 03:39:50 PM 42.1828 -74.9781 106° East 453 521 18,300 -1,279 Descending Boston Center
Mon 03:40:51 PM 42.1247 -74.8286 118° Southeast 455 524 18,000 -295 Descending Boston Center
Mon 03:41:52 PM 42.0517 -74.6567 120° Southeast 452 520 17,700 -1,131 Descending Boston Center
Mon 03:42:53 PM 41.9911 -74.5117 119° Southeast 447 514 15,700 -1,869 Descending Boston Center
Mon 03:43:54 PM 41.9353 -74.3814 120° Southeast 407 468 13,900 -1,736 Descending Boston Center
Mon 03:44:54 PM 41.8797 -74.2536 120° Southeast 369 425 12,200 -1,475 Descending Boston Center
Mon 03:45:56 PM 41.8322 -74.1514 122° Southeast 325 374 10,900 -1,415 Descending Boston Center
Mon 03:46:57 PM 41.7850 -74.0589 124° Southeast 301 346 9,300 -1,548 Descending Boston Center
Mon 03:48:00 PM 41.7125 -74.0186 157° South 280 322 7,700 -1,548 Descending Boston Center
Mon 03:49:01 PM 41.6358 -73.9814 160° South 272 313 6,100 -990 Descending Boston Center
Mon 03:49:43 PM 41.5833 -73.9500 156° South 268 308 6,000  Descending New York TRACON
Mon 03:50:37 PM 41.5167 -73.9167 159° South 269 310 6,100 -526 Climbing New York TRACON
Mon 03:51:37 PM 41.4500 -73.8833 159° South 264 304 5,000 -1,200 Descending New York TRACON
Mon 03:52:37 PM 41.4000 -73.8500 153° Southeast 242 278 3,700 -905 Descending New York TRACON
Mon 03:53:43 PM 41.3333 -73.7833 143° Southeast 245 282 3,100 -300 Descending New York TRACON
Mon 03:54:37 PM 41.2833 -73.7500 153° Southeast 228 262 3,100  Level New York TRACON
Mon 03:55:37 PM 41.2333 -73.7000 143° Southeast 213 245 3,100  Level New York TRACON
Mon 03:56:38 PM 41.1833 -73.6500 143° Southeast 210 242 3,100 -450 Level New York TRACON
Mon 03:57:37 PM 41.1333 -73.6167 153° Southeast 208 239 2,200 -504 Descending New York TRACON
Mon 03:58:37 PM 41.1000 -73.5833 143° Southeast 207 238 2,100 -50 Descending New York TRACON
Mon 03:59:37 PM 41.0500 -73.5667 166° South 173 199 2,100  Level New York TRACON
Mon 04:00:37 PM 41.0000 -73.5667 180° South 194 223 2,100  Level New York TRACON
Mon 04:01:37 PM 40.9833 -73.6333 252° West 197 227 2,100 -300 Level New York TRACON
Mon 04:02:37 PM 41.0167 -73.6667 323° Northwest 167 192 1,500 -789 Descending New York TRACON
Mon 04:03:31 PM 41.0500 -73.7000 323° Northwest 135 155 600 -1,000 Descending New York TRACON

Login

Don't have an account? Register now (free) for customized features, flight alerts, and more!